createdAt,value
2017-08-16T00:00:56.136Z,4.07
2017-08-16T00:03:23.537Z,4.33
2017-08-16T00:05:50.947Z,7.17
2017-08-16T00:08:18.454Z,5.63
2017-08-16T00:10:45.874Z,7.17
2017-08-16T00:13:13.274Z,15.90
2017-08-16T00:15:40.710Z,8.97
2017-08-16T00:18:08.148Z,4.40
2017-08-16T00:20:35.546Z,5.43
2017-08-16T00:23:02.963Z,7.77
2017-08-16T00:25:31.135Z,21.43
2017-08-16T00:27:59.327Z,18.70
2017-08-16T00:30:26.739Z,5.40
2017-08-16T00:32:54.434Z,5.30
2017-08-16T00:35:22.428Z,7.47
2017-08-16T00:37:49.855Z,9.30
2017-08-16T00:40:18.022Z,7.40
2017-08-16T00:42:46.205Z,6.97
2017-08-16T00:45:14.366Z,6.80
2017-08-16T00:47:42.595Z,8.43
2017-08-16T00:50:10.011Z,7.50
2017-08-16T00:52:38.326Z,6.87
2017-08-16T00:55:05.735Z,7.30
2017-08-16T00:57:33.899Z,6.80
2017-08-16T01:00:02.082Z,6.60
2017-08-16T01:02:30.370Z,5.87
2017-08-16T01:04:57.784Z,6.43
2017-08-16T01:07:25.188Z,6.20
2017-08-16T01:09:52.604Z,5.03
2017-08-16T01:12:20.007Z,14.13
2017-08-16T01:14:47.459Z,6.63
2017-08-16T01:17:14.893Z,14.40
2017-08-16T01:19:42.379Z,7.83
2017-08-16T01:22:09.840Z,6.57
2017-08-16T01:24:37.262Z,5.83
2017-08-16T01:27:05.426Z,13.63
2017-08-16T01:29:33.591Z,7.03
2017-08-16T01:32:01.774Z,7.27
2017-08-16T01:34:29.171Z,6.90
2017-08-16T01:36:57.211Z,8.33
2017-08-16T01:39:25.415Z,6.73
2017-08-16T01:41:52.822Z,7.40
2017-08-16T01:44:20.998Z,5.47
2017-08-16T01:46:49.171Z,7.70
2017-08-16T01:49:17.347Z,5.27
2017-08-16T01:51:45.527Z,8.77
2017-08-16T01:54:13.699Z,5.80
2017-08-16T01:56:41.879Z,11.97
2017-08-16T01:59:10.499Z,6.43
2017-08-16T02:01:37.955Z,8.27
2017-08-16T02:04:05.363Z,5.97
2017-08-16T02:06:33.543Z,5.90
2017-08-16T02:09:00.943Z,9.70
2017-08-16T02:11:28.759Z,12.47
2017-08-16T02:13:57.488Z,6.47
2017-08-16T02:16:24.944Z,6.80
2017-08-16T02:18:52.366Z,8.50
2017-08-16T02:21:20.545Z,5.93
2017-08-16T02:23:49.523Z,8.00
2017-08-16T02:26:17.739Z,6.10
2017-08-16T02:28:45.146Z,6.73
2017-08-16T02:31:12.544Z,9.37
2017-08-16T02:33:40.207Z,10.13
2017-08-16T02:36:07.627Z,5.80
2017-08-16T02:38:35.839Z,7.57
2017-08-16T02:41:03.239Z,9.30
2017-08-16T02:43:30.662Z,8.73
2017-08-16T02:45:58.719Z,6.43
2017-08-16T02:48:26.127Z,7.80
2017-08-16T02:50:53.540Z,5.17
2017-08-16T02:53:20.942Z,6.57
2017-08-16T02:55:48.351Z,7.27
2017-08-16T02:58:15.802Z,8.97
2017-08-16T03:00:43.199Z,9.30
2017-08-16T03:03:10.637Z,13.63
2017-08-16T03:05:38.035Z,9.40
2017-08-16T03:08:06.208Z,7.20
2017-08-16T03:10:34.381Z,9.97
2017-08-16T03:13:02.550Z,20.77
2017-08-16T03:15:30.720Z,20.30
2017-08-16T03:17:58.899Z,11.73
2017-08-16T03:20:27.074Z,12.97
2017-08-16T03:22:55.268Z,22.93
2017-08-16T03:25:22.755Z,11.87
2017-08-16T03:27:50.142Z,12.57
2017-08-16T03:30:18.180Z,14.50
2017-08-16T03:32:45.628Z,16.37
2017-08-16T03:35:13.084Z,18.50
2017-08-16T03:37:40.487Z,17.90
2017-08-16T03:40:08.672Z,17.93
2017-08-16T03:42:36.879Z,18.27
2017-08-16T03:45:04.342Z,19.23
2017-08-16T03:47:31.750Z,17.83
2017-08-16T03:49:59.956Z,24.10
2017-08-16T03:52:27.382Z,21.17
2017-08-16T03:54:55.594Z,22.80
2017-08-16T03:57:23.011Z,28.03
2017-08-16T03:59:51.232Z,24.57
2017-08-16T04:02:18.636Z,21.23
2017-08-16T04:04:46.856Z,32.17
2017-08-16T04:07:14.288Z,23.50
2017-08-16T04:09:42.467Z,29.80
2017-08-16T04:12:09.874Z,28.87
2017-08-16T04:14:37.303Z,31.80
2017-08-16T04:17:04.749Z,33.13
2017-08-16T04:19:32.155Z,31.73
2017-08-16T04:21:59.562Z,33.20
2017-08-16T04:24:26.980Z,36.33
2017-08-16T04:26:54.390Z,40.30
2017-08-16T04:29:21.810Z,40.57
2017-08-16T04:31:49.232Z,46.27
2017-08-16T04:34:16.645Z,44.30
2017-08-16T04:36:44.059Z,47.70
2017-08-16T04:39:12.625Z,49.43
2017-08-16T04:41:40.139Z,49.60
2017-08-16T04:44:07.546Z,54.57
2017-08-16T04:46:34.966Z,52.87
2017-08-16T04:49:02.436Z,54.27
2017-08-16T04:51:29.851Z,63.80
2017-08-16T04:53:57.327Z,64.47
2017-08-16T04:56:24.747Z,71.57
2017-08-16T04:58:53.460Z,74.43
2017-08-16T05:01:20.870Z,79.90
2017-08-16T05:03:49.051Z,76.73
2017-08-16T05:06:17.242Z,80.20
2017-08-16T05:08:44.654Z,80.53
2017-08-16T05:11:12.174Z,85.80
2017-08-16T05:13:39.591Z,81.50
2017-08-16T05:16:07.777Z,75.40
2017-08-16T05:18:35.952Z,78.53
2017-08-16T05:21:04.128Z,74.43
2017-08-16T05:23:31.631Z,74.87
2017-08-16T05:25:59.059Z,73.70
2017-08-16T05:28:26.481Z,79.23
2017-08-16T05:30:54.678Z,83.77
2017-08-16T05:33:22.845Z,76.30
2017-08-16T05:35:51.028Z,80.57
2017-08-16T05:38:18.502Z,93.43
2017-08-16T05:40:45.915Z,80.60
2017-08-16T05:43:14.114Z,85.90
2017-08-16T05:45:41.527Z,88.30
2017-08-16T05:48:08.947Z,74.37
2017-08-16T05:50:36.358Z,75.00
2017-08-16T05:53:04.545Z,76.40
2017-08-16T05:55:33.070Z,78.67
2017-08-16T05:58:00.518Z,71.27
2017-08-16T06:00:27.971Z,77.67
2017-08-16T06:02:55.392Z,81.37
2017-08-16T06:05:23.571Z,81.03
2017-08-16T06:07:51.748Z,72.70
2017-08-16T06:10:19.158Z,73.07
2017-08-16T06:12:46.574Z,80.83
2017-08-16T06:15:13.995Z,78.33
2017-08-16T06:17:42.172Z,80.20
2017-08-16T06:20:10.357Z,80.97
2017-08-16T06:22:38.567Z,84.77
2017-08-16T06:25:05.962Z,72.67
2017-08-16T06:27:33.480Z,80.10
2017-08-16T06:30:01.202Z,74.20
2017-08-16T06:32:29.387Z,76.83
2017-08-16T06:34:56.804Z,78.47
2017-08-16T06:37:24.221Z,71.43
2017-08-16T06:39:51.634Z,78.57
2017-08-16T06:42:19.046Z,69.27
2017-08-16T06:44:46.459Z,74.57
2017-08-16T06:47:13.884Z,77.47
2017-08-16T06:49:41.295Z,84.20
2017-08-16T06:52:08.722Z,63.37
2017-08-16T06:54:36.909Z,68.53
2017-08-16T06:57:05.089Z,77.70
2017-08-16T06:59:33.118Z,67.03
2017-08-16T07:02:00.637Z,67.80
2017-08-16T07:04:28.051Z,67.40
2017-08-16T07:06:56.259Z,68.27
2017-08-16T07:09:23.674Z,61.73
2017-08-16T07:11:51.855Z,60.03
2017-08-16T07:14:20.038Z,59.63
2017-08-16T07:16:47.446Z,60.53
2017-08-16T07:19:14.869Z,62.43
2017-08-16T07:21:42.282Z,62.50
2017-08-16T07:24:09.782Z,57.23
2017-08-16T07:26:37.204Z,58.47
2017-08-16T07:29:05.391Z,63.00
2017-08-16T07:31:33.578Z,61.47
2017-08-16T07:34:01.054Z,57.63
2017-08-16T07:36:28.614Z,62.00
2017-08-16T07:38:56.035Z,60.60
2017-08-16T07:41:24.251Z,58.33
2017-08-16T07:43:51.668Z,55.53
2017-08-16T07:46:19.079Z,66.53
2017-08-16T07:48:46.494Z,63.33
2017-08-16T07:51:13.924Z,58.83
2017-08-16T07:53:42.102Z,60.50
2017-08-16T07:56:10.285Z,65.70
2017-08-16T07:58:38.483Z,63.37
2017-08-16T08:01:06.562Z,64.60
2017-08-16T08:03:33.984Z,66.27
2017-08-16T08:06:02.172Z,63.03
2017-08-16T08:08:29.587Z,62.10
2017-08-16T08:10:57.067Z,58.97
2017-08-16T08:13:25.243Z,54.27
2017-08-16T08:15:53.967Z,54.40
2017-08-16T08:18:21.386Z,47.20
2017-08-16T08:20:49.563Z,53.37
2017-08-16T08:23:16.983Z,46.50
2017-08-16T08:25:44.388Z,50.07
2017-08-16T08:28:11.794Z,50.50
2017-08-16T08:30:39.319Z,53.80
2017-08-16T08:33:07.294Z,52.17
2017-08-16T08:35:34.719Z,55.93
2017-08-16T08:38:03.121Z,49.97
2017-08-16T08:40:30.579Z,44.27
2017-08-16T08:42:58.036Z,42.77
2017-08-16T08:45:25.483Z,46.30
2017-08-16T08:47:52.895Z,47.80
2017-08-16T08:50:21.770Z,49.27
2017-08-16T08:52:49.578Z,45.97
2017-08-16T08:55:17.896Z,44.03
2017-08-16T08:57:45.327Z,47.30
2017-08-16T09:00:12.756Z,46.50
2017-08-16T09:02:40.959Z,43.50
2017-08-16T09:05:08.383Z,43.70
2017-08-16T09:07:36.674Z,49.73
2017-08-16T09:10:04.109Z,49.93
2017-08-16T09:12:32.326Z,43.53
2017-08-16T09:14:59.730Z,40.77
2017-08-16T09:17:27.152Z,39.77
2017-08-16T09:19:54.553Z,40.87
2017-08-16T09:22:21.959Z,34.20
2017-08-16T09:24:50.294Z,35.80
2017-08-16T09:27:18.495Z,32.27
2017-08-16T09:29:45.916Z,34.33
2017-08-16T09:32:14.094Z,34.00
2017-08-16T09:34:41.530Z,39.07
2017-08-16T09:37:08.939Z,34.23
2017-08-16T09:39:36.371Z,36.20
2017-08-16T09:42:03.782Z,32.43
2017-08-16T09:44:31.190Z,29.80
2017-08-16T09:46:59.280Z,28.47
2017-08-16T09:49:26.691Z,26.63
2017-08-16T09:51:54.891Z,38.30
2017-08-16T09:54:22.332Z,36.60
2017-08-16T09:56:50.507Z,24.67
2017-08-16T09:59:17.949Z,34.13
2017-08-16T10:01:46.127Z,30.20
2017-08-16T10:04:14.347Z,26.17
2017-08-16T10:06:41.794Z,25.80
2017-08-16T10:09:09.203Z,22.60
2017-08-16T10:11:37.393Z,22.17
2017-08-16T10:14:05.568Z,21.07
2017-08-16T10:16:33.776Z,23.13
2017-08-16T10:19:01.199Z,25.47
2017-08-16T10:21:29.375Z,25.80
2017-08-16T10:23:56.803Z,23.33
2017-08-16T10:26:24.210Z,21.70
2017-08-16T10:28:51.634Z,29.17
2017-08-16T10:31:19.231Z,20.63
2017-08-16T10:33:46.653Z,19.70
2017-08-16T10:36:14.830Z,22.30
2017-08-16T10:38:43.535Z,23.93
2017-08-16T10:41:10.950Z,24.70
2017-08-16T10:43:38.362Z,23.77
2017-08-16T10:46:05.778Z,20.80
2017-08-16T10:48:33.191Z,15.50
2017-08-16T10:51:00.616Z,14.93
2017-08-16T10:53:28.027Z,13.50
2017-08-16T10:55:56.218Z,17.33
2017-08-16T10:58:24.428Z,12.50
2017-08-16T11:00:51.907Z,12.13
2017-08-16T11:03:19.314Z,12.23
2017-08-16T11:05:46.742Z,11.03
2017-08-16T11:08:14.359Z,13.13
2017-08-16T11:10:41.773Z,11.40
2017-08-16T11:13:09.955Z,14.53
2017-08-16T11:15:38.175Z,10.60
2017-08-16T11:18:05.578Z,9.27
2017-08-16T11:20:33.820Z,9.10
2017-08-16T11:23:01.227Z,10.67
2017-08-16T11:25:28.631Z,7.90
2017-08-16T11:27:56.048Z,10.57
2017-08-16T11:30:23.510Z,8.33
2017-08-16T11:32:50.929Z,9.37
2017-08-16T11:35:19.139Z,14.23
2017-08-16T11:37:46.563Z,11.33
2017-08-16T11:40:14.735Z,12.57
2017-08-16T11:42:43.760Z,15.40
2017-08-16T11:45:11.175Z,16.50
2017-08-16T11:47:38.583Z,8.70
2017-08-16T11:50:05.996Z,7.30
2017-08-16T11:52:34.179Z,8.80
2017-08-16T11:55:01.591Z,9.80
2017-08-16T11:57:28.994Z,7.23
2017-08-16T11:59:56.407Z,8.87
2017-08-16T12:02:23.835Z,6.67
2017-08-16T12:04:51.248Z,20.17
2017-08-16T12:07:19.428Z,25.43
2017-08-16T12:09:46.835Z,7.83
2017-08-16T12:12:14.886Z,9.33
2017-08-16T12:14:42.315Z,9.10
2017-08-16T12:17:11.119Z,13.90
2017-08-16T12:19:38.533Z,16.10
2017-08-16T12:22:05.938Z,10.73
2017-08-16T12:24:33.342Z,7.20
2017-08-16T12:27:01.462Z,5.57
2017-08-16T12:29:29.294Z,9.70
2017-08-16T12:31:56.711Z,11.07
2017-08-16T12:34:24.651Z,7.67
2017-08-16T12:36:52.311Z,5.70
2017-08-16T12:39:20.330Z,8.00
2017-08-16T12:41:47.743Z,5.50
2017-08-16T12:44:15.149Z,9.37
2017-08-16T12:46:42.566Z,4.77
2017-08-16T12:49:10.003Z,7.27
2017-08-16T12:51:37.395Z,6.57
2017-08-16T12:54:04.803Z,4.57
2017-08-16T12:56:32.275Z,4.67
2017-08-16T12:58:59.694Z,5.87
2017-08-16T13:01:27.165Z,5.93
2017-08-16T13:03:55.358Z,19.90
2017-08-16T13:06:22.768Z,5.90
2017-08-16T13:08:50.266Z,7.90
2017-08-16T13:11:17.693Z,5.30
2017-08-16T13:13:46.394Z,6.07
2017-08-16T13:16:13.803Z,10.87
2017-08-16T13:18:41.235Z,8.03
2017-08-16T13:21:08.643Z,11.83
2017-08-16T13:23:36.832Z,5.63
2017-08-16T13:26:04.323Z,10.93
2017-08-16T13:28:31.747Z,11.60
2017-08-16T13:30:59.250Z,6.90
2017-08-16T13:33:26.658Z,6.43
2017-08-16T13:35:54.071Z,21.87
2017-08-16T13:38:21.515Z,13.30
2017-08-16T13:40:48.943Z,6.70
2017-08-16T13:43:17.066Z,14.00
2017-08-16T13:45:44.482Z,10.53
2017-08-16T13:48:11.953Z,8.97
2017-08-16T13:50:40.087Z,18.93
2017-08-16T13:53:07.495Z,57.83
2017-08-16T13:55:34.915Z,48.03
2017-08-16T13:58:02.332Z,12.10
2017-08-16T14:00:29.837Z,10.80
2017-08-16T14:02:57.251Z,10.73
2017-08-16T14:05:25.488Z,5.93
2017-08-16T14:07:52.937Z,5.70
2017-08-16T14:10:20.311Z,7.23
2017-08-16T14:12:47.724Z,10.33
2017-08-16T14:15:15.135Z,13.83
2017-08-16T14:17:42.551Z,12.10
2017-08-16T14:20:09.964Z,10.60
2017-08-16T14:22:38.174Z,9.23
2017-08-16T14:25:05.637Z,8.27
2017-08-16T14:27:33.035Z,8.00
2017-08-16T14:30:00.453Z,7.87
2017-08-16T14:32:28.590Z,7.53
2017-08-16T14:34:55.999Z,6.93
2017-08-16T14:37:23.727Z,6.63
2017-08-16T14:39:51.131Z,4.40
2017-08-16T14:42:18.543Z,6.27
2017-08-16T14:44:46.015Z,10.73
2017-08-16T14:47:13.422Z,7.03
2017-08-16T14:49:40.826Z,4.80
2017-08-16T14:52:08.902Z,7.90
2017-08-16T14:54:36.304Z,11.10
2017-08-16T14:57:05.128Z,5.03
2017-08-16T14:59:32.538Z,6.00
2017-08-16T15:02:00.719Z,5.10
2017-08-16T15:04:28.899Z,8.73
2017-08-16T15:06:57.308Z,28.43
2017-08-16T15:09:24.763Z,8.33
2017-08-16T15:11:52.725Z,8.30
2017-08-16T15:14:20.187Z,6.63
2017-08-16T15:16:47.595Z,6.07
2017-08-16T15:19:14.998Z,3.30
2017-08-16T15:21:42.403Z,4.90
2017-08-16T15:24:09.808Z,6.33
2017-08-16T15:26:37.223Z,8.43
2017-08-16T15:29:04.640Z,6.47
2017-08-16T15:31:32.085Z,8.80
2017-08-16T15:33:59.496Z,5.33
2017-08-16T15:36:27.688Z,8.40
2017-08-16T15:38:55.086Z,7.20
2017-08-16T15:41:22.499Z,7.53
2017-08-16T15:43:49.903Z,7.03
2017-08-16T15:46:17.346Z,11.87
2017-08-16T15:48:45.523Z,5.63
2017-08-16T15:51:12.934Z,7.20
2017-08-16T15:53:41.108Z,5.73
2017-08-16T15:56:09.215Z,5.80
2017-08-16T15:58:37.031Z,6.63
2017-08-16T16:01:05.242Z,7.00
2017-08-16T16:03:32.650Z,7.40
2017-08-16T16:06:00.063Z,8.43
2017-08-16T16:08:27.471Z,9.23
2017-08-16T16:10:54.874Z,9.03
2017-08-16T16:13:22.688Z,8.73
2017-08-16T16:15:50.115Z,14.63
2017-08-16T16:18:17.523Z,12.07
2017-08-16T16:20:44.978Z,4.73
2017-08-16T16:23:12.644Z,8.67
2017-08-16T16:25:40.055Z,4.40
2017-08-16T16:28:07.462Z,10.53
2017-08-16T16:30:34.871Z,17.30
2017-08-16T16:33:02.385Z,6.90
2017-08-16T16:35:29.792Z,4.87
2017-08-16T16:37:57.289Z,10.03
2017-08-16T16:40:24.759Z,5.80
2017-08-16T16:42:52.166Z,4.97
2017-08-16T16:45:19.640Z,9.70
2017-08-16T16:47:47.053Z,6.53
2017-08-16T16:50:14.766Z,4.90
2017-08-16T16:52:42.179Z,13.27
2017-08-16T16:55:09.686Z,5.37
2017-08-16T16:57:37.107Z,10.00
2017-08-16T17:00:05.294Z,11.50
2017-08-16T17:02:33.475Z,5.80
2017-08-16T17:05:00.910Z,11.00
2017-08-16T17:07:28.533Z,5.43
2017-08-16T17:09:55.953Z,5.23
2017-08-16T17:12:23.371Z,9.90
2017-08-16T17:14:50.806Z,5.20
2017-08-16T17:17:18.212Z,12.20
2017-08-16T17:19:46.739Z,13.97
2017-08-16T17:22:14.175Z,14.73
2017-08-16T17:24:41.594Z,16.40
2017-08-16T17:27:09.775Z,5.23
2017-08-16T17:29:37.955Z,5.33
2017-08-16T17:32:05.363Z,11.10
2017-08-16T17:34:32.774Z,5.70
2017-08-16T17:37:00.190Z,5.30
2017-08-16T17:39:27.595Z,6.20
2017-08-16T17:41:55.200Z,14.13
2017-08-16T17:44:22.607Z,7.00
2017-08-16T17:46:50.014Z,5.23
2017-08-16T17:49:17.523Z,6.30
2017-08-16T17:51:44.951Z,7.87
2017-08-16T17:54:12.358Z,7.17
2017-08-16T17:56:39.803Z,5.27
2017-08-16T17:59:07.535Z,6.30
2017-08-16T18:01:34.938Z,9.40
2017-08-16T18:04:02.342Z,8.40
2017-08-16T18:06:29.954Z,10.47
2017-08-16T18:08:57.358Z,6.07
2017-08-16T18:11:24.770Z,15.10
2017-08-16T18:13:52.187Z,6.90
2017-08-16T18:16:19.586Z,9.30
2017-08-16T18:18:47.005Z,7.23
2017-08-16T18:21:14.460Z,9.70
2017-08-16T18:23:41.863Z,9.40
2017-08-16T18:26:09.964Z,8.93
2017-08-16T18:28:37.376Z,6.60
2017-08-16T18:31:04.782Z,7.60
2017-08-16T18:33:32.195Z,5.57
2017-08-16T18:35:59.606Z,7.40
2017-08-16T18:38:27.007Z,7.80
2017-08-16T18:40:54.441Z,6.63
2017-08-16T18:43:22.490Z,6.97
2017-08-16T18:45:49.899Z,12.57
2017-08-16T18:48:17.307Z,6.93
2017-08-16T18:50:44.714Z,4.53
2017-08-16T18:53:12.322Z,10.80
2017-08-16T18:55:39.728Z,7.37
2017-08-16T18:58:07.901Z,7.40
2017-08-16T19:00:35.314Z,11.20
2017-08-16T19:03:02.723Z,9.30
2017-08-16T19:05:30.905Z,7.37
2017-08-16T19:07:58.383Z,12.03
2017-08-16T19:10:25.853Z,12.33
2017-08-16T19:12:53.267Z,12.90
2017-08-16T19:15:21.443Z,23.37
2017-08-16T19:17:48.855Z,12.70
2017-08-16T19:20:16.268Z,6.30
2017-08-16T19:22:43.675Z,8.50
2017-08-16T19:25:11.195Z,7.80
2017-08-16T19:27:38.608Z,6.00
2017-08-16T19:30:06.840Z,7.03
2017-08-16T19:32:34.331Z,9.27
2017-08-16T19:35:01.784Z,10.23
2017-08-16T19:37:29.186Z,10.50
2017-08-16T19:39:56.598Z,10.87
2017-08-16T19:42:24.005Z,8.80
2017-08-16T19:44:51.413Z,8.90
2017-08-16T19:47:18.830Z,10.00
2017-08-16T19:49:46.231Z,9.93
2017-08-16T19:52:14.427Z,11.63
2017-08-16T19:54:41.837Z,11.27
2017-08-16T19:57:09.249Z,12.20
2017-08-16T19:59:37.044Z,11.23
2017-08-16T20:02:04.479Z,10.23
2017-08-16T20:04:32.455Z,8.60
2017-08-16T20:06:59.873Z,8.40
2017-08-16T20:09:27.293Z,10.07
2017-08-16T20:11:54.727Z,20.47
2017-08-16T20:14:22.194Z,14.67
2017-08-16T20:16:49.604Z,15.20
2017-08-16T20:19:17.019Z,13.27
2017-08-16T20:21:44.428Z,11.00
2017-08-16T20:24:11.836Z,9.10
2017-08-16T20:26:39.245Z,12.70
2017-08-16T20:29:06.698Z,12.67
2017-08-16T20:31:34.109Z,6.97
2017-08-16T20:34:01.514Z,8.87
2017-08-16T20:36:28.974Z,12.53
2017-08-16T20:38:56.387Z,8.23
2017-08-16T20:41:23.803Z,11.27
2017-08-16T20:43:51.214Z,11.57
2017-08-16T20:46:18.630Z,19.53
2017-08-16T20:48:46.034Z,9.80
2017-08-16T20:51:13.439Z,9.87
2017-08-16T20:53:40.857Z,32.37
2017-08-16T20:56:08.264Z,20.90
2017-08-16T20:58:35.679Z,13.90
2017-08-16T21:01:03.316Z,13.90
2017-08-16T21:03:30.744Z,19.47
2017-08-16T21:05:59.731Z,16.10
2017-08-16T21:08:27.911Z,12.50
2017-08-16T21:10:56.695Z,9.73
2017-08-16T21:13:24.876Z,11.33
2017-08-16T21:15:53.082Z,12.97
2017-08-16T21:18:20.497Z,11.23
2017-08-16T21:20:48.679Z,17.93
2017-08-16T21:23:16.865Z,15.60
2017-08-16T21:25:44.275Z,18.03
2017-08-16T21:28:11.690Z,12.47
2017-08-16T21:30:39.563Z,17.30
2017-08-16T21:33:06.983Z,15.40
2017-08-16T21:35:35.155Z,20.07
2017-08-16T21:38:03.484Z,18.30
2017-08-16T21:40:30.952Z,29.47
2017-08-16T21:42:58.798Z,20.40
2017-08-16T21:45:26.975Z,21.30
2017-08-16T21:47:55.180Z,16.77
2017-08-16T21:50:22.911Z,17.20
2017-08-16T21:52:50.361Z,25.97
2017-08-16T21:55:17.806Z,20.60
2017-08-16T21:57:45.215Z,23.20
2017-08-16T22:00:12.642Z,16.33
2017-08-16T22:02:40.055Z,15.80
2017-08-16T22:05:07.998Z,17.50
2017-08-16T22:07:35.428Z,17.20
2017-08-16T22:10:03.780Z,15.30
2017-08-16T22:12:31.240Z,12.03
2017-08-16T22:14:59.191Z,13.80
2017-08-16T22:17:26.662Z,16.47
2017-08-16T22:19:54.132Z,16.07
2017-08-16T22:22:21.534Z,15.27
2017-08-16T22:24:49.706Z,14.70
2017-08-16T22:27:17.919Z,15.10
2017-08-16T22:29:45.364Z,17.63
2017-08-16T22:32:12.776Z,17.53
2017-08-16T22:34:40.296Z,15.97
2017-08-16T22:37:07.746Z,17.97
2017-08-16T22:39:35.639Z,11.50
2017-08-16T22:42:03.074Z,19.63
2017-08-16T22:44:30.483Z,14.20
2017-08-16T22:46:58.716Z,12.70
2017-08-16T22:49:26.155Z,11.67
2017-08-16T22:51:53.671Z,13.87
2017-08-16T22:54:21.066Z,10.83
2017-08-16T22:56:48.766Z,17.57
2017-08-16T22:59:16.167Z,16.57
2017-08-16T23:01:43.979Z,17.47
2017-08-16T23:04:11.378Z,11.10
2017-08-16T23:06:38.842Z,14.77
2017-08-16T23:09:07.771Z,22.03
2017-08-16T23:11:36.087Z,13.13
2017-08-16T23:14:03.598Z,13.53
2017-08-16T23:16:31.010Z,25.43
2017-08-16T23:18:58.518Z,16.10
2017-08-16T23:21:25.979Z,18.00
2017-08-16T23:23:53.442Z,15.20
2017-08-16T23:26:20.888Z,11.73
2017-08-16T23:28:48.283Z,15.63
2017-08-16T23:31:16.492Z,19.60
2017-08-16T23:33:43.952Z,17.70
2017-08-16T23:36:11.395Z,24.60
2017-08-16T23:38:38.846Z,28.17
2017-08-16T23:41:06.285Z,28.07
2017-08-16T23:43:33.728Z,21.53
2017-08-16T23:46:01.148Z,14.57
2017-08-16T23:48:28.624Z,15.17
2017-08-16T23:50:56.933Z,17.63
2017-08-16T23:53:24.428Z,15.60
2017-08-16T23:55:52.575Z,32.63
2017-08-16T23:58:20.747Z,16.33
